createdAt,value
2016-12-07T00:00:26.887Z,23.32
2016-12-07T00:00:55.311Z,23.32
2016-12-07T00:01:23.237Z,23.23
2016-12-07T00:01:51.304Z,23.23
2016-12-07T00:02:20.068Z,23.23
2016-12-07T00:02:48.577Z,23.31
2016-12-07T00:03:16.447Z,23.24
2016-12-07T00:03:44.644Z,23.17
2016-12-07T00:04:12.497Z,23.22
2016-12-07T00:04:40.657Z,23.14
2016-12-07T00:05:08.469Z,23.17
2016-12-07T00:05:36.222Z,23.14
2016-12-07T00:06:04.637Z,23.17
2016-12-07T00:06:32.350Z,23.14
2016-12-07T00:07:00.448Z,23.11
2016-12-07T00:07:28.681Z,23.19
2016-12-07T00:07:56.594Z,23.09
2016-12-07T00:08:24.504Z,23.17
2016-12-07T00:08:52.680Z,23.09
2016-12-07T00:09:35.142Z,23.02
2016-12-07T00:10:02.938Z,23.12
2016-12-07T00:10:45.365Z,23.08
2016-12-07T00:11:13.580Z,23.09
2016-12-07T00:11:41.309Z,23.17
2016-12-07T00:12:09.450Z,23.08
2016-12-07T00:12:37.282Z,23.05
2016-12-07T00:13:05.092Z,23.07
2016-12-07T00:13:33.508Z,23.09
2016-12-07T00:14:01.753Z,23.11
2016-12-07T00:14:29.896Z,23.01
2016-12-07T00:14:57.949Z,23.04
2016-12-07T00:15:26.320Z,23.11
2016-12-07T00:15:54.053Z,23.02
2016-12-07T00:16:22.164Z,23.04
2016-12-07T00:16:50.859Z,23.07
2016-12-07T00:17:18.730Z,23.07
2016-12-07T00:17:46.562Z,23.02
2016-12-07T00:18:14.449Z,23.02
2016-12-07T00:18:42.617Z,23.08
2016-12-07T00:19:10.799Z,22.94
2016-12-07T00:19:38.578Z,22.97
2016-12-07T00:20:06.479Z,22.97
2016-12-07T00:20:34.680Z,23.02
2016-12-07T00:21:02.541Z,22.94
2016-12-07T00:21:30.416Z,23.09
2016-12-07T00:21:58.227Z,23.12
2016-12-07T00:22:26.111Z,23.11
2016-12-07T00:22:53.963Z,23.04
2016-12-07T00:23:21.700Z,23.02
2016-12-07T00:23:50.229Z,23.05
2016-12-07T00:24:18.152Z,22.96
2016-12-07T00:25:00.722Z,23.07
2016-12-07T00:25:43.178Z,22.99
2016-12-07T00:26:11.093Z,23.01
2016-12-07T00:26:38.903Z,23.08
2016-12-07T00:27:06.713Z,23.08
2016-12-07T00:27:35.061Z,22.97
2016-12-07T00:28:02.828Z,23.05
2016-12-07T00:28:31.446Z,23.14
2016-12-07T00:28:59.623Z,23.09
2016-12-07T00:29:27.723Z,22.96
2016-12-07T00:29:55.924Z,23.08
2016-12-07T00:30:23.992Z,22.99
2016-12-07T00:30:51.776Z,23.14
2016-12-07T00:31:19.905Z,23.11
2016-12-07T00:31:47.688Z,23.11
2016-12-07T00:32:15.541Z,23.02
2016-12-07T00:32:43.953Z,22.99
2016-12-07T00:33:11.876Z,23.05
2016-12-07T00:33:54.636Z,23.01
2016-12-07T00:34:22.448Z,23.05
2016-12-07T00:34:50.366Z,23.02
2016-12-07T00:35:18.505Z,22.96
2016-12-07T00:35:46.330Z,22.99
2016-12-07T00:36:14.183Z,23.01
2016-12-07T00:36:42.326Z,23.02
2016-12-07T00:37:10.214Z,22.93
2016-12-07T00:37:38.439Z,22.96
2016-12-07T00:38:06.579Z,22.97
2016-12-07T00:38:34.378Z,22.99
2016-12-07T00:39:02.204Z,22.87
2016-12-07T00:39:30.018Z,22.97
2016-12-07T00:39:58.737Z,22.89
2016-12-07T00:40:26.490Z,22.9
2016-12-07T00:40:54.649Z,22.96
2016-12-07T00:41:22.450Z,22.82
2016-12-07T00:41:50.252Z,22.86
2016-12-07T00:42:18.043Z,22.93
2016-12-07T00:42:45.807Z,22.9
2016-12-07T00:43:13.623Z,22.84
2016-12-07T00:43:41.727Z,22.84
2016-12-07T00:44:09.827Z,22.92
2016-12-07T00:44:38.005Z,22.96
2016-12-07T00:45:05.802Z,22.82
2016-12-07T00:45:33.712Z,22.8
2016-12-07T00:46:01.967Z,22.84
2016-12-07T00:46:29.745Z,22.82
2016-12-07T00:46:57.567Z,22.84
2016-12-07T00:47:25.382Z,22.82
2016-12-07T00:47:53.984Z,22.86
2016-12-07T00:48:21.791Z,22.84
2016-12-07T00:48:49.597Z,22.75
2016-12-07T00:49:17.451Z,22.82
2016-12-07T00:49:45.283Z,22.8
2016-12-07T00:50:13.074Z,22.77
2016-12-07T00:50:40.885Z,22.82
2016-12-07T00:51:08.672Z,22.84
2016-12-07T00:51:36.500Z,22.82
2016-12-07T00:52:04.867Z,22.74
2016-12-07T00:52:33.242Z,22.68
2016-12-07T00:53:01.155Z,22.69
2016-12-07T00:53:29.348Z,22.69
2016-12-07T00:53:57.393Z,22.72
2016-12-07T00:54:25.183Z,22.67
2016-12-07T00:54:53.068Z,22.74
2016-12-07T00:55:21.241Z,22.68
2016-12-07T00:55:49.347Z,22.6
2016-12-07T00:56:17.195Z,22.68
2016-12-07T00:56:45.069Z,22.67
2016-12-07T00:57:13.160Z,22.69
2016-12-07T00:57:41.076Z,22.68
2016-12-07T00:58:09.791Z,22.68
2016-12-07T00:58:37.687Z,22.68
2016-12-07T00:59:05.536Z,22.71
2016-12-07T00:59:33.665Z,22.65
2016-12-07T01:00:01.471Z,22.65
2016-12-07T01:00:29.596Z,22.71
2016-12-07T01:00:57.356Z,22.67
2016-12-07T01:01:25.156Z,22.64
2016-12-07T01:01:53.027Z,22.65
2016-12-07T01:02:20.832Z,22.69
2016-12-07T01:02:48.620Z,22.67
2016-12-07T01:03:16.761Z,22.71
2016-12-07T01:03:44.579Z,22.69
2016-12-07T01:04:12.490Z,22.64
2016-12-07T01:04:40.315Z,22.65
2016-12-07T01:05:08.768Z,22.67
2016-12-07T01:05:36.632Z,22.72
2016-12-07T01:06:04.438Z,22.67
2016-12-07T01:06:32.898Z,22.6
2016-12-07T01:07:00.756Z,22.68
2016-12-07T01:07:28.488Z,22.71
2016-12-07T01:07:56.636Z,22.65
2016-12-07T01:08:24.475Z,22.67
2016-12-07T01:08:52.277Z,22.72
2016-12-07T01:09:20.091Z,22.72
2016-12-07T01:09:47.922Z,22.74
2016-12-07T01:10:15.671Z,22.72
2016-12-07T01:10:43.492Z,22.69
2016-12-07T01:11:11.596Z,22.78
2016-12-07T01:11:39.385Z,22.77
2016-12-07T01:12:07.476Z,22.78
2016-12-07T01:12:35.605Z,22.77
2016-12-07T01:13:03.597Z,22.75
2016-12-07T01:13:31.535Z,22.71
2016-12-07T01:13:59.355Z,22.74
2016-12-07T01:14:27.512Z,22.65
2016-12-07T01:14:55.344Z,22.71
2016-12-07T01:15:23.121Z,22.69
2016-12-07T01:15:51.297Z,22.64
2016-12-07T01:16:19.086Z,22.69
2016-12-07T01:16:47.261Z,22.69
2016-12-07T01:17:15.744Z,22.53
2016-12-07T01:17:43.912Z,22.62
2016-12-07T01:18:12.134Z,22.65
2016-12-07T01:18:40.616Z,22.52
2016-12-07T01:19:08.744Z,22.56
2016-12-07T01:19:36.557Z,22.52
2016-12-07T01:20:04.416Z,22.5
2016-12-07T01:20:32.551Z,22.56
2016-12-07T01:21:00.397Z,22.49
2016-12-07T01:21:28.174Z,22.54
2016-12-07T01:21:56.231Z,22.54
2016-12-07T01:22:24.638Z,22.57
2016-12-07T01:22:52.453Z,22.54
2016-12-07T01:23:20.479Z,22.44
2016-12-07T01:23:48.643Z,22.39
2016-12-07T01:24:16.509Z,22.37
2016-12-07T01:24:44.317Z,22.49
2016-12-07T01:25:12.124Z,22.41
2016-12-07T01:25:40.901Z,22.39
2016-12-07T01:26:09.015Z,22.41
2016-12-07T01:26:36.821Z,22.37
2016-12-07T01:27:04.677Z,22.5
2016-12-07T01:27:32.458Z,22.5
2016-12-07T01:28:00.584Z,22.56
2016-12-07T01:28:29.054Z,22.56
2016-12-07T01:28:56.809Z,22.5
2016-12-07T01:29:24.590Z,22.5
2016-12-07T01:29:52.440Z,22.49
2016-12-07T01:30:20.254Z,22.47
2016-12-07T01:30:48.729Z,22.5
2016-12-07T01:31:16.529Z,22.52
2016-12-07T01:31:44.447Z,22.56
2016-12-07T01:32:12.627Z,22.53
2016-12-07T01:32:40.815Z,22.52
2016-12-07T01:33:08.905Z,22.49
2016-12-07T01:33:36.749Z,22.53
2016-12-07T01:34:05.230Z,22.39
2016-12-07T01:34:33.075Z,22.38
2016-12-07T01:35:00.852Z,22.49
2016-12-07T01:35:29.079Z,22.57
2016-12-07T01:35:57.230Z,22.59
2016-12-07T01:36:24.976Z,22.57
2016-12-07T01:36:53.059Z,22.57
2016-12-07T01:37:20.849Z,22.52
2016-12-07T01:37:49.015Z,22.56
2016-12-07T01:38:16.961Z,22.56
2016-12-07T01:38:44.800Z,22.54
2016-12-07T01:39:12.592Z,22.56
2016-12-07T01:39:40.769Z,22.5
2016-12-07T01:40:08.912Z,22.59
2016-12-07T01:40:36.994Z,22.62
2016-12-07T01:41:04.751Z,22.64
2016-12-07T01:41:32.610Z,22.65
2016-12-07T01:42:00.478Z,22.56
2016-12-07T01:42:28.541Z,22.62
2016-12-07T01:42:56.392Z,22.67
2016-12-07T01:43:24.591Z,22.68
2016-12-07T01:43:52.675Z,22.53
2016-12-07T01:44:20.771Z,22.59
2016-12-07T01:44:48.598Z,22.67
2016-12-07T01:45:16.741Z,22.64
2016-12-07T01:45:44.599Z,22.65
2016-12-07T01:46:12.701Z,22.53
2016-12-07T01:46:40.522Z,22.57
2016-12-07T01:47:08.415Z,22.54
2016-12-07T01:47:36.199Z,22.53
2016-12-07T01:48:04.163Z,22.57
2016-12-07T01:48:32.291Z,22.5
2016-12-07T01:49:00.703Z,22.57
2016-12-07T01:49:29.134Z,22.57
2016-12-07T01:49:56.938Z,22.49
2016-12-07T01:50:25.082Z,22.35
2016-12-07T01:50:53.522Z,22.43
2016-12-07T01:51:21.595Z,22.43
2016-12-07T01:51:50.097Z,22.39
2016-12-07T01:52:18.210Z,22.39
2016-12-07T01:52:46.695Z,22.43
2016-12-07T01:53:14.591Z,22.39
2016-12-07T01:53:42.631Z,22.44
2016-12-07T01:54:11.121Z,22.46
2016-12-07T01:54:38.906Z,22.37
2016-12-07T01:55:06.753Z,22.37
2016-12-07T01:55:34.596Z,22.41
2016-12-07T01:56:02.377Z,22.34
2016-12-07T01:56:30.497Z,22.35
2016-12-07T01:56:58.535Z,22.35
2016-12-07T01:57:26.993Z,22.43
2016-12-07T01:57:54.834Z,22.31
2016-12-07T01:58:22.624Z,22.35
2016-12-07T01:58:50.412Z,22.31
2016-12-07T01:59:18.603Z,22.34
2016-12-07T01:59:46.489Z,22.31
2016-12-07T02:00:14.267Z,22.31
2016-12-07T02:00:42.412Z,22.35
2016-12-07T02:01:10.275Z,22.29
2016-12-07T02:01:38.476Z,22.34
2016-12-07T02:02:06.299Z,22.2
2016-12-07T02:02:34.118Z,22.2
2016-12-07T02:03:01.872Z,22.2
2016-12-07T02:03:30.020Z,22.25
2016-12-07T02:03:57.813Z,22.22
2016-12-07T02:04:25.550Z,22.23
2016-12-07T02:04:53.699Z,22.2
2016-12-07T02:05:21.460Z,22.32
2016-12-07T02:05:49.557Z,22.34
2016-12-07T02:06:17.411Z,22.37
2016-12-07T02:06:45.216Z,22.35
2016-12-07T02:07:12.983Z,22.35
2016-12-07T02:07:41.800Z,22.38
2016-12-07T02:08:09.621Z,22.34
2016-12-07T02:08:37.954Z,22.38
2016-12-07T02:09:05.814Z,22.34
2016-12-07T02:09:33.564Z,22.38
2016-12-07T02:10:01.381Z,22.44
2016-12-07T02:10:29.152Z,22.35
2016-12-07T02:10:57.264Z,22.47
2016-12-07T02:11:25.071Z,22.5
2016-12-07T02:11:52.929Z,22.5
2016-12-07T02:12:20.758Z,22.56
2016-12-07T02:12:48.641Z,22.52
2016-12-07T02:13:16.914Z,22.56
2016-12-07T02:13:44.780Z,22.53
2016-12-07T02:14:12.599Z,22.54
2016-12-07T02:14:40.737Z,22.6
2016-12-07T02:15:08.541Z,22.56
2016-12-07T02:15:36.706Z,22.52
2016-12-07T02:16:04.521Z,22.54
2016-12-07T02:16:32.627Z,22.5
2016-12-07T02:17:01.074Z,22.54
2016-12-07T02:17:29.004Z,22.56
2016-12-07T02:17:57.440Z,22.5
2016-12-07T02:18:25.426Z,22.43
2016-12-07T02:18:53.567Z,22.46
2016-12-07T02:19:21.454Z,22.46
2016-12-07T02:19:49.584Z,22.37
2016-12-07T02:20:17.441Z,22.39
2016-12-07T02:20:45.281Z,22.35
2016-12-07T02:21:13.066Z,22.38
2016-12-07T02:21:41.277Z,22.37
2016-12-07T02:22:09.497Z,22.39
2016-12-07T02:22:37.627Z,22.37
2016-12-07T02:23:05.578Z,22.39
2016-12-07T02:23:33.782Z,22.38
2016-12-07T02:24:01.589Z,22.32
2016-12-07T02:24:29.716Z,22.25
2016-12-07T02:24:57.932Z,22.25
2016-12-07T02:25:25.988Z,22.25
2016-12-07T02:25:53.790Z,22.23
2016-12-07T02:26:21.548Z,22.23
2016-12-07T02:26:49.716Z,22.25
2016-12-07T02:27:17.495Z,22.22
2016-12-07T02:27:45.997Z,22.25
2016-12-07T02:28:14.175Z,22.19
2016-12-07T02:28:42.944Z,22.22
2016-12-07T02:29:10.726Z,22.19
2016-12-07T02:29:38.867Z,22.17
2016-12-07T02:30:06.979Z,22.12
2016-12-07T02:30:34.771Z,22.1
2016-12-07T02:31:02.625Z,22.12
2016-12-07T02:31:30.992Z,22.16
2016-12-07T02:31:59.069Z,22.06
2016-12-07T02:32:26.872Z,22.07
2016-12-07T02:32:54.997Z,22.16
2016-12-07T02:33:23.372Z,22.14
2016-12-07T02:33:51.611Z,22.14
2016-12-07T02:34:19.707Z,22.09
2016-12-07T02:34:48.247Z,22.13
2016-12-07T02:35:16.959Z,22.13
2016-12-07T02:35:44.730Z,22.1
2016-12-07T02:36:12.490Z,22.06
2016-12-07T02:36:40.656Z,21.98
2016-12-07T02:37:08.683Z,22.09
2016-12-07T02:37:36.504Z,22.04
2016-12-07T02:38:04.889Z,21.99
2016-12-07T02:38:32.999Z,22.16
2016-12-07T02:39:01.008Z,22.1
2016-12-07T02:39:29.107Z,22.12
2016-12-07T02:39:57.191Z,22.13
2016-12-07T02:40:24.939Z,22.14
2016-12-07T02:40:53.037Z,22.17
2016-12-07T02:41:20.807Z,22.22
2016-12-07T02:41:48.620Z,22.23
2016-12-07T02:42:17.116Z,22.2
2016-12-07T02:42:45.158Z,22.17
2016-12-07T02:43:13.242Z,22.17
2016-12-07T02:43:41.032Z,22.22
2016-12-07T02:44:08.826Z,22.19
2016-12-07T02:44:36.673Z,22.14
2016-12-07T02:45:04.474Z,22.09
2016-12-07T02:45:32.306Z,22.07
2016-12-07T02:46:00.067Z,21.97
2016-12-07T02:46:27.876Z,22.04
2016-12-07T02:46:56.218Z,21.99
2016-12-07T02:47:24.068Z,21.95
2016-12-07T02:47:52.223Z,22.1
2016-12-07T02:48:20.057Z,22.09
2016-12-07T02:48:48.011Z,22.01
2016-12-07T02:49:16.034Z,22.1
2016-12-07T02:49:44.135Z,22.1
2016-12-07T02:50:12.277Z,22.1
2016-12-07T02:50:40.487Z,22.07
2016-12-07T02:51:08.290Z,22.14
2016-12-07T02:51:36.134Z,22.04
2016-12-07T02:52:03.956Z,22.14
2016-12-07T02:52:31.700Z,22.13
2016-12-07T02:52:59.802Z,22.14
2016-12-07T02:54:01.460Z,22.14
2016-12-07T02:54:29.669Z,22.01
2016-12-07T02:54:57.539Z,22.06
2016-12-07T02:55:26.005Z,21.95
2016-12-07T02:55:54.177Z,22.01
2016-12-07T02:56:22.320Z,22.07
2016-12-07T02:56:50.430Z,22.13
2016-12-07T02:57:18.592Z,22.01
2016-12-07T02:57:46.495Z,22.09
2016-12-07T02:58:14.359Z,22.01
2016-12-07T02:58:42.889Z,22.1
2016-12-07T02:59:10.930Z,22.02
2016-12-07T02:59:38.761Z,22.14
2016-12-07T03:00:06.576Z,22.19
2016-12-07T03:00:34.420Z,22.19
2016-12-07T03:01:02.243Z,22.12
2016-12-07T03:01:30.317Z,22.2
2016-12-07T03:01:58.061Z,22.22
2016-12-07T03:02:25.918Z,22.19
2016-12-07T03:02:53.823Z,22.22
2016-12-07T03:03:22.238Z,22.14
2016-12-07T03:03:49.970Z,22.16
2016-12-07T03:04:18.124Z,22.01
2016-12-07T03:04:45.905Z,22.07
2016-12-07T03:05:14.325Z,22.02
2016-12-07T03:05:42.108Z,22.04
2016-12-07T03:06:10.277Z,22.04
2016-12-07T03:06:38.133Z,21.91
2016-12-07T03:07:06.824Z,21.92
2016-12-07T03:07:34.729Z,21.97
2016-12-07T03:08:02.513Z,21.94
2016-12-07T03:08:30.285Z,21.95
2016-12-07T03:08:58.361Z,21.88
2016-12-07T03:09:26.588Z,21.9
2016-12-07T03:09:54.373Z,21.82
2016-12-07T03:10:22.108Z,21.82
2016-12-07T03:10:49.895Z,21.92
2016-12-07T03:11:18.011Z,21.81
2016-12-07T03:11:45.788Z,21.82
2016-12-07T03:12:13.941Z,21.85
2016-12-07T03:12:41.680Z,21.85
2016-12-07T03:13:10.071Z,21.88
2016-12-07T03:13:37.895Z,21.85
2016-12-07T03:14:05.665Z,21.83
2016-12-07T03:14:33.772Z,21.83
2016-12-07T03:15:01.615Z,21.82
2016-12-07T03:15:29.446Z,21.85
2016-12-07T03:15:57.888Z,21.9
2016-12-07T03:16:25.730Z,21.82
2016-12-07T03:16:53.859Z,21.83
2016-12-07T03:17:21.684Z,21.85
2016-12-07T03:17:49.460Z,21.85
2016-12-07T03:18:17.591Z,21.9
2016-12-07T03:18:45.795Z,21.88
2016-12-07T03:19:14.079Z,21.88
2016-12-07T03:19:42.236Z,21.88
2016-12-07T03:20:10.110Z,21.88
2016-12-07T03:20:37.875Z,21.82
2016-12-07T03:21:06.606Z,21.83
2016-12-07T03:21:34.753Z,21.81
2016-12-07T03:22:02.589Z,21.88
2016-12-07T03:22:30.349Z,21.76
2016-12-07T03:22:58.433Z,21.78
2016-12-07T03:23:26.193Z,21.83
2016-12-07T03:23:54.675Z,21.79
2016-12-07T03:24:22.771Z,21.76
2016-12-07T03:24:51.358Z,21.79
2016-12-07T03:25:19.205Z,21.74
2016-12-07T03:25:47.349Z,21.71
2016-12-07T03:26:15.271Z,21.67
2016-12-07T03:26:43.142Z,21.61
2016-12-07T03:27:10.942Z,21.6
2016-12-07T03:27:39.078Z,21.57
2016-12-07T03:28:07.204Z,21.57
2016-12-07T03:28:34.969Z,21.57
2016-12-07T03:29:02.907Z,21.57
2016-12-07T03:29:30.800Z,21.63
2016-12-07T03:29:58.619Z,21.66
2016-12-07T03:30:26.420Z,21.78
2016-12-07T03:30:54.256Z,21.88
2016-12-07T03:31:22.107Z,21.83
2016-12-07T03:31:50.567Z,21.83
2016-12-07T03:32:18.705Z,21.81
2016-12-07T03:32:46.614Z,21.85
2016-12-07T03:33:14.665Z,21.82
2016-12-07T03:33:43.170Z,21.85
2016-12-07T03:34:11.336Z,21.88
2016-12-07T03:34:39.683Z,21.78
2016-12-07T03:35:07.606Z,21.83
2016-12-07T03:35:35.488Z,21.85
2016-12-07T03:36:03.664Z,21.83
2016-12-07T03:36:31.525Z,21.85
2016-12-07T03:36:59.589Z,21.83
2016-12-07T03:37:27.657Z,21.88
2016-12-07T03:38:27.354Z,21.91
2016-12-07T03:38:55.217Z,21.81
2016-12-07T03:39:22.972Z,21.83
2016-12-07T03:39:51.176Z,21.95
2016-12-07T03:40:19.323Z,21.95
2016-12-07T03:40:47.154Z,21.94
2016-12-07T03:41:15.258Z,21.97
2016-12-07T03:41:43.366Z,21.95
2016-12-07T03:42:11.102Z,21.92
2016-12-07T03:42:39.238Z,21.97
2016-12-07T03:43:07.390Z,21.98
2016-12-07T03:43:35.210Z,21.92
2016-12-07T03:44:03.030Z,21.85
2016-12-07T03:44:31.188Z,21.98
2016-12-07T03:44:59.376Z,21.98
2016-12-07T03:45:27.172Z,21.97
2016-12-07T03:45:54.949Z,21.85
2016-12-07T03:46:22.766Z,21.91
2016-12-07T03:46:50.992Z,21.81
2016-12-07T03:47:19.005Z,21.81
2016-12-07T03:47:47.235Z,21.76
2016-12-07T03:48:14.943Z,21.85
2016-12-07T03:48:42.763Z,21.81
2016-12-07T03:49:10.876Z,21.75
2016-12-07T03:49:39.641Z,21.72
2016-12-07T03:50:08.435Z,21.64
2016-12-07T03:50:36.573Z,21.72
2016-12-07T03:51:04.697Z,21.74
2016-12-07T03:51:32.874Z,21.82
2016-12-07T03:52:01.026Z,21.71
2016-12-07T03:52:29.160Z,21.76
2016-12-07T03:52:57.280Z,21.75
2016-12-07T03:53:25.081Z,21.76
2016-12-07T03:53:53.208Z,21.71
2016-12-07T03:54:21.028Z,21.74
2016-12-07T03:54:49.414Z,21.69
2016-12-07T03:55:17.225Z,21.69
2016-12-07T03:55:45.000Z,21.67
2016-12-07T03:56:13.420Z,21.71
2016-12-07T03:56:41.833Z,21.63
2016-12-07T03:57:09.596Z,21.59
2016-12-07T03:57:37.345Z,21.63
2016-12-07T03:58:05.159Z,21.67
2016-12-07T03:58:32.911Z,21.75
2016-12-07T03:59:01.063Z,21.64
2016-12-07T03:59:29.258Z,21.71
2016-12-07T03:59:57.138Z,21.67
2016-12-07T04:00:25.049Z,21.61
2016-12-07T04:00:52.890Z,21.69
2016-12-07T04:01:21.667Z,21.64
2016-12-07T04:01:49.437Z,21.61
2016-12-07T04:02:17.327Z,21.56
2016-12-07T04:02:45.168Z,21.57
2016-12-07T04:03:13.043Z,21.57
2016-12-07T04:03:40.834Z,21.54
2016-12-07T04:04:08.707Z,21.54
2016-12-07T04:04:36.585Z,21.61
2016-12-07T04:05:04.442Z,21.6
2016-12-07T04:05:32.281Z,21.54
2016-12-07T04:06:00.090Z,21.6
2016-12-07T04:06:27.922Z,21.66
2016-12-07T04:06:55.763Z,21.6
2016-12-07T04:07:23.573Z,21.6
2016-12-07T04:07:51.364Z,21.54
2016-12-07T04:08:19.516Z,21.56
2016-12-07T04:08:47.581Z,21.61
2016-12-07T04:09:15.418Z,21.54
2016-12-07T04:09:43.207Z,21.56
2016-12-07T04:10:11.354Z,21.59
2016-12-07T04:10:39.215Z,21.57
2016-12-07T04:11:07.375Z,21.66
2016-12-07T04:11:35.484Z,21.59
2016-12-07T04:12:03.609Z,21.61
2016-12-07T04:12:31.793Z,21.63
2016-12-07T04:12:59.510Z,21.64
2016-12-07T04:13:27.367Z,21.67
2016-12-07T04:13:55.120Z,21.66
2016-12-07T04:14:23.226Z,21.61
2016-12-07T04:14:51.599Z,21.66
2016-12-07T04:15:19.449Z,21.6
2016-12-07T04:15:47.321Z,21.64
2016-12-07T04:16:15.161Z,21.54
2016-12-07T04:16:42.989Z,21.56
2016-12-07T04:17:11.167Z,21.56
2016-12-07T04:17:38.928Z,21.53
2016-12-07T04:18:07.114Z,21.48
2016-12-07T04:18:35.236Z,21.54
2016-12-07T04:19:03.039Z,21.48
2016-12-07T04:19:31.019Z,21.54
2016-12-07T04:19:59.526Z,21.44
2016-12-07T04:20:27.369Z,21.48
2016-12-07T04:20:55.237Z,21.46
2016-12-07T04:21:23.294Z,21.51
2016-12-07T04:21:51.378Z,21.46
2016-12-07T04:22:19.762Z,21.45
2016-12-07T04:22:47.522Z,21.45
2016-12-07T04:23:15.373Z,21.5
2016-12-07T04:23:43.290Z,21.45
2016-12-07T04:24:11.815Z,21.46
2016-12-07T04:24:39.838Z,21.38
2016-12-07T04:25:07.747Z,21.35
2016-12-07T04:25:35.609Z,21.29
2016-12-07T04:26:03.477Z,21.34
2016-12-07T04:26:31.347Z,21.29
2016-12-07T04:26:59.412Z,21.34
2016-12-07T04:27:27.250Z,21.35
2016-12-07T04:27:55.006Z,21.35
2016-12-07T04:28:23.118Z,21.32
2016-12-07T04:28:51.556Z,21.35
2016-12-07T04:29:19.436Z,21.36
2016-12-07T04:29:47.550Z,21.36
2016-12-07T04:30:15.954Z,21.32
2016-12-07T04:30:44.119Z,21.24
2016-12-07T04:31:11.963Z,21.34
2016-12-07T04:31:39.762Z,21.27
2016-12-07T04:32:08.174Z,21.32
2016-12-07T04:32:35.948Z,21.32
2016-12-07T04:33:03.737Z,21.35
2016-12-07T04:33:31.472Z,21.34
2016-12-07T04:33:59.294Z,21.35
2016-12-07T04:34:27.085Z,21.34
2016-12-07T04:34:55.047Z,21.34
2016-12-07T04:35:23.455Z,21.36
2016-12-07T04:35:51.520Z,21.41
2016-12-07T04:36:19.374Z,21.34
2016-12-07T04:36:47.152Z,21.24
2016-12-07T04:37:14.914Z,21.34
2016-12-07T04:37:42.716Z,21.24
2016-12-07T04:38:10.854Z,21.34
2016-12-07T04:38:38.641Z,21.27
2016-12-07T04:39:06.467Z,21.29
2016-12-07T04:39:34.241Z,21.26
2016-12-07T04:40:01.992Z,21.3
2016-12-07T04:40:29.816Z,21.21
2016-12-07T04:40:57.800Z,21.29
2016-12-07T04:41:25.975Z,21.27
2016-12-07T04:41:53.737Z,21.26
2016-12-07T04:42:21.810Z,21.26
2016-12-07T04:42:49.972Z,21.27
2016-12-07T04:43:18.131Z,21.29
2016-12-07T04:43:46.077Z,21.27
2016-12-07T04:44:14.236Z,21.24
2016-12-07T04:44:42.959Z,21.24
2016-12-07T04:45:10.919Z,21.27
2016-12-07T04:45:38.708Z,21.29
2016-12-07T04:46:06.575Z,21.27
2016-12-07T04:46:34.357Z,21.27
2016-12-07T04:47:02.495Z,21.17
2016-12-07T04:47:30.681Z,21.14
2016-12-07T04:47:58.758Z,21.29
2016-12-07T04:48:26.926Z,21.27
2016-12-07T04:48:55.354Z,21.3
2016-12-07T04:49:23.729Z,21.24
2016-12-07T04:49:51.501Z,21.24
2016-12-07T04:50:19.968Z,21.14
2016-12-07T04:50:47.828Z,21.11
2016-12-07T04:51:15.715Z,21.26
2016-12-07T04:51:43.839Z,21.26
2016-12-07T04:52:12.002Z,21.23
2016-12-07T04:52:39.822Z,21.27
2016-12-07T04:53:07.971Z,21.3
2016-12-07T04:53:35.755Z,21.32
2016-12-07T04:54:03.883Z,21.38
2016-12-07T04:54:32.258Z,21.42
2016-12-07T04:55:00.097Z,21.36
2016-12-07T04:55:28.144Z,21.36
2016-12-07T04:55:55.955Z,21.48
2016-12-07T04:56:24.013Z,21.45
2016-12-07T04:56:51.872Z,21.46
2016-12-07T04:57:19.719Z,21.61
2016-12-07T04:57:47.637Z,21.64
2016-12-07T04:58:16.146Z,21.6
2016-12-07T04:58:43.995Z,21.61
2016-12-07T04:59:12.063Z,21.57
2016-12-07T04:59:40.243Z,21.59
2016-12-07T05:00:08.356Z,21.53
2016-12-07T05:00:36.458Z,21.57
2016-12-07T05:01:04.317Z,21.57
2016-12-07T05:01:32.389Z,21.64
2016-12-07T05:02:00.487Z,21.56
2016-12-07T05:02:28.259Z,21.54
2016-12-07T05:02:56.392Z,21.57
2016-12-07T05:03:24.199Z,21.57
2016-12-07T05:03:52.402Z,21.53
2016-12-07T05:04:20.476Z,21.54
2016-12-07T05:04:48.605Z,21.46
2016-12-07T05:05:16.592Z,21.48
2016-12-07T05:05:44.677Z,21.45
2016-12-07T05:06:12.441Z,21.46
2016-12-07T05:06:40.604Z,21.41
2016-12-07T05:07:08.752Z,21.44
2016-12-07T05:07:36.980Z,21.42
2016-12-07T05:08:05.355Z,21.41
2016-12-07T05:08:33.776Z,21.38
2016-12-07T05:09:01.636Z,21.44
2016-12-07T05:09:29.835Z,21.38
2016-12-07T05:09:57.636Z,21.44
2016-12-07T05:10:26.301Z,21.38
2016-12-07T05:10:54.128Z,21.42
2016-12-07T05:11:22.293Z,21.41
2016-12-07T05:11:50.444Z,21.41
2016-12-07T05:12:18.252Z,21.38
2016-12-07T05:12:46.104Z,21.42
2016-12-07T05:13:13.871Z,21.42
2016-12-07T05:13:42.072Z,21.36
2016-12-07T05:14:09.853Z,21.41
2016-12-07T05:14:37.993Z,21.36
2016-12-07T05:15:06.114Z,21.35
2016-12-07T05:15:34.758Z,21.39
2016-12-07T05:16:02.970Z,21.35
2016-12-07T05:16:31.118Z,21.41
2016-12-07T05:16:59.195Z,21.32
2016-12-07T05:17:27.074Z,21.34
2016-12-07T05:17:54.877Z,21.36
2016-12-07T05:18:22.825Z,21.3
2016-12-07T05:18:50.932Z,21.23
2016-12-07T05:19:18.836Z,21.29
2016-12-07T05:19:46.641Z,21.29
2016-12-07T05:20:14.448Z,21.2
2016-12-07T05:20:42.211Z,21.24
2016-12-07T05:21:10.073Z,21.24
2016-12-07T05:21:37.787Z,21.29
2016-12-07T05:22:05.905Z,21.3
2016-12-07T05:22:33.971Z,21.32
2016-12-07T05:23:01.720Z,21.36
2016-12-07T05:23:29.541Z,21.34
2016-12-07T05:23:58.164Z,21.35
2016-12-07T05:24:26.278Z,21.36
2016-12-07T05:24:54.055Z,21.38
2016-12-07T05:25:22.045Z,21.32
2016-12-07T05:25:50.203Z,21.27
2016-12-07T05:26:17.975Z,21.23
2016-12-07T05:26:46.024Z,21.27
2016-12-07T05:27:13.799Z,21.2
2016-12-07T05:27:42.819Z,21.17
2016-12-07T05:28:10.989Z,21.16
2016-12-07T05:28:39.738Z,21.17
2016-12-07T05:29:07.539Z,21.24
2016-12-07T05:29:35.803Z,21.14
2016-12-07T05:30:03.655Z,21.13
2016-12-07T05:30:31.668Z,21.24
2016-12-07T05:30:59.441Z,21.2
2016-12-07T05:31:27.557Z,21.14
2016-12-07T05:31:55.349Z,21.2
2016-12-07T05:32:23.210Z,21.11
2016-12-07T05:32:51.342Z,21.17
2016-12-07T05:33:19.095Z,21.16
2016-12-07T05:33:46.986Z,21.2
2016-12-07T05:34:15.161Z,21.16
2016-12-07T05:34:43.026Z,21.14
2016-12-07T05:35:10.849Z,21.09
2016-12-07T05:35:38.957Z,21.08
2016-12-07T05:36:07.342Z,21.11
2016-12-07T05:36:35.157Z,21.11
2016-12-07T05:37:02.983Z,21.16
2016-12-07T05:37:30.733Z,21.13
2016-12-07T05:37:58.564Z,21.17
2016-12-07T05:38:26.337Z,21.01
2016-12-07T05:38:54.418Z,21.01
2016-12-07T05:39:22.266Z,21.05
2016-12-07T05:39:50.455Z,20.99
2016-12-07T05:40:18.280Z,20.99
2016-12-07T05:40:46.475Z,20.89
2016-12-07T05:41:14.564Z,20.9
2016-12-07T05:41:42.386Z,20.89
2016-12-07T05:42:10.298Z,20.87
2016-12-07T05:42:38.166Z,20.9
2016-12-07T05:43:05.991Z,20.87
2016-12-07T05:43:34.370Z,20.8
2016-12-07T05:44:02.200Z,20.89
2016-12-07T05:44:30.320Z,20.9
2016-12-07T05:44:58.520Z,20.81
2016-12-07T05:45:26.646Z,20.89
2016-12-07T05:45:54.789Z,20.8
2016-12-07T05:46:22.581Z,20.83
2016-12-07T05:46:50.392Z,20.84
2016-12-07T05:47:18.904Z,20.84
2016-12-07T05:47:46.861Z,20.84
2016-12-07T05:48:15.708Z,20.86
2016-12-07T05:48:43.550Z,20.84
2016-12-07T05:49:11.350Z,20.83
2016-12-07T05:49:39.178Z,20.81
2016-12-07T05:50:07.067Z,20.86
2016-12-07T05:50:34.844Z,20.83
2016-12-07T05:51:03.665Z,20.81
2016-12-07T05:51:32.343Z,20.86
2016-12-07T05:52:00.183Z,20.79
2016-12-07T05:52:28.374Z,20.77
2016-12-07T05:52:56.247Z,20.83
2016-12-07T05:53:24.113Z,20.9
2016-12-07T05:53:51.899Z,20.95
2016-12-07T05:54:19.696Z,20.93
2016-12-07T05:54:47.856Z,20.99
2016-12-07T05:55:15.671Z,20.91
2016-12-07T05:55:43.817Z,21.02
2016-12-07T05:56:12.128Z,21.02
2016-12-07T05:56:39.879Z,21.05
2016-12-07T05:57:08.029Z,21.02
2016-12-07T05:57:35.883Z,21.05
2016-12-07T05:58:04.289Z,20.98
2016-12-07T05:58:32.360Z,21.01
2016-12-07T05:59:00.197Z,20.95
2016-12-07T05:59:28.428Z,20.93
2016-12-07T05:59:56.304Z,20.93
2016-12-07T06:00:24.388Z,20.8
2016-12-07T06:00:52.581Z,20.81
2016-12-07T06:01:21.129Z,20.81
2016-12-07T06:01:48.938Z,20.86
2016-12-07T06:02:16.757Z,20.72
2016-12-07T06:02:44.536Z,20.68
2016-12-07T06:03:12.648Z,20.66
2016-12-07T06:03:40.481Z,20.76
2016-12-07T06:04:08.354Z,20.71